createdAt,value
2022-09-26T03:17:35.369Z,29.83
2022-09-26T03:20:18.633Z,26.98
2022-09-26T03:23:00.005Z,27.73
2022-09-26T03:25:33.830Z,29.08
2022-09-26T03:28:07.520Z,27.27
2022-09-26T03:30:42.060Z,28.13
2022-09-26T03:33:39.577Z,26.63
2022-09-26T03:36:12.094Z,25.95
2022-09-26T03:38:49.441Z,26.13
2022-09-26T03:41:37.931Z,27.05
2022-09-26T03:44:21.198Z,27.00
2022-09-26T03:47:07.949Z,27.05
2022-09-26T03:49:43.078Z,28.00
2022-09-26T03:52:13.957Z,27.73
2022-09-26T03:54:46.024Z,26.85
2022-09-26T03:57:25.692Z,27.27
2022-09-26T04:00:19.533Z,26.90
2022-09-26T04:02:56.610Z,28.30
2022-09-26T04:06:14.345Z,26.80
2022-09-26T04:09:00.834Z,26.00
2022-09-26T04:11:54.082Z,26.80
2022-09-26T04:14:55.671Z,25.73
2022-09-26T04:17:32.513Z,26.38
2022-09-26T04:20:11.949Z,26.25
2022-09-26T04:22:46.923Z,26.23
2022-09-26T04:25:21.720Z,25.73
2022-09-26T04:27:57.302Z,26.88
2022-09-26T04:30:30.114Z,25.88
2022-09-26T04:33:14.793Z,28.00
2022-09-26T04:36:02.796Z,26.42
2022-09-26T04:38:44.409Z,26.40
2022-09-26T04:41:33.566Z,26.55
2022-09-26T04:44:05.294Z,25.55
2022-09-26T04:46:37.413Z,27.00
2022-09-26T04:49:29.965Z,25.10
2022-09-26T04:51:58.755Z,25.40
2022-09-26T04:54:31.636Z,23.15
2022-09-26T04:57:04.447Z,25.55
2022-09-26T04:59:34.249Z,26.35
2022-09-26T05:02:18.627Z,22.33
2022-09-26T05:04:48.259Z,22.40
2022-09-26T05:07:18.530Z,22.40
2022-09-26T05:09:49.566Z,22.20
2022-09-26T05:12:20.014Z,21.05
2022-09-26T05:14:57.018Z,21.60
2022-09-26T05:17:27.919Z,20.45
2022-09-26T05:20:03.866Z,19.52
2022-09-26T05:23:01.913Z,20.60
2022-09-26T05:25:55.393Z,20.10
2022-09-26T05:28:24.778Z,19.55
2022-09-26T05:30:56.815Z,19.25
2022-09-26T05:33:29.938Z,19.45
2022-09-26T05:35:58.979Z,18.77
2022-09-26T05:38:36.667Z,18.77
2022-09-26T05:41:10.193Z,18.50
2022-09-26T05:43:50.286Z,20.67
2022-09-26T05:46:23.272Z,17.58
2022-09-26T05:48:56.018Z,17.30
2022-09-26T05:51:25.854Z,18.17
2022-09-26T05:54:00.326Z,19.58
2022-09-26T05:56:35.021Z,18.42
2022-09-26T05:59:22.644Z,19.75
2022-09-26T06:02:14.263Z,17.88
2022-09-26T06:04:56.559Z,18.42
2022-09-26T06:07:45.817Z,17.40
2022-09-26T06:10:34.683Z,17.40
2022-09-26T06:13:17.287Z,16.52
2022-09-26T06:15:50.839Z,18.25
2022-09-26T06:18:21.441Z,17.90
2022-09-26T06:20:49.896Z,16.02
2022-09-26T06:23:25.232Z,14.63
2022-09-26T06:25:55.800Z,16.60
2022-09-26T06:28:32.462Z,15.65
2022-09-26T06:31:01.004Z,15.52
2022-09-26T06:33:55.462Z,15.70
2022-09-26T06:36:39.759Z,14.88
2022-09-26T06:39:10.151Z,15.88
2022-09-26T06:41:38.882Z,16.63
2022-09-26T06:44:34.154Z,14.98
2022-09-26T06:47:19.343Z,15.63
2022-09-26T06:49:50.622Z,15.25
2022-09-26T06:52:35.073Z,15.95
2022-09-26T06:55:08.348Z,16.67
2022-09-26T06:57:41.350Z,17.17
2022-09-26T07:00:18.651Z,15.98
2022-09-26T07:03:11.821Z,18.05
2022-09-26T07:06:11.523Z,21.08
2022-09-26T07:09:01.347Z,22.88
2022-09-26T07:12:16.696Z,28.55
2022-09-26T07:14:48.935Z,26.73
2022-09-26T07:17:37.186Z,30.30
2022-09-26T07:20:23.791Z,22.50
2022-09-26T07:23:12.799Z,20.23
2022-09-26T07:25:51.674Z,19.35
2022-09-26T07:28:28.073Z,16.70
2022-09-26T07:31:00.685Z,18.23
2022-09-26T07:33:46.445Z,16.92
2022-09-26T07:36:16.056Z,16.52
2022-09-26T07:38:52.889Z,16.20
2022-09-26T07:41:25.695Z,16.30
2022-09-26T07:44:41.227Z,15.82
2022-09-26T07:47:15.536Z,16.67
2022-09-26T07:50:09.084Z,17.05
2022-09-26T07:52:57.487Z,16.95
2022-09-26T07:55:28.245Z,17.25
2022-09-26T07:58:21.811Z,17.60
2022-09-26T08:01:19.175Z,17.95
2022-09-26T08:04:06.636Z,18.83
2022-09-26T08:06:43.018Z,18.70
2022-09-26T08:09:12.896Z,20.52
2022-09-26T08:13:25.386Z,20.05
2022-09-26T08:28:44.546Z,22.10
2022-09-26T08:31:13.491Z,21.38
2022-09-26T08:33:42.171Z,23.38
2022-09-26T08:36:12.396Z,24.20
2022-09-26T08:38:59.543Z,23.33
2022-09-26T08:41:59.012Z,23.17
2022-09-26T08:45:02.054Z,23.13
2022-09-26T08:48:05.109Z,21.63
2022-09-26T08:50:48.935Z,21.65
2022-09-26T08:53:20.958Z,22.27
2022-09-26T08:55:57.246Z,23.17
2022-09-26T08:58:38.931Z,21.33
2022-09-26T09:01:20.505Z,21.10
2022-09-26T09:04:17.089Z,21.20
2022-09-26T09:06:46.979Z,20.45
2022-09-26T09:09:18.063Z,19.75
2022-09-26T09:12:22.953Z,20.67
2022-09-26T09:15:25.383Z,19.33
2022-09-26T09:18:31.725Z,18.38
2022-09-26T09:21:28.119Z,17.75
2022-09-26T09:24:22.183Z,17.63
2022-09-26T09:30:10.423Z,17.30
2022-09-26T09:32:59.853Z,16.40
2022-09-26T09:35:51.918Z,16.05
2022-09-26T09:38:50.480Z,15.80
2022-09-26T09:41:48.152Z,15.45
2022-09-26T09:44:31.347Z,14.48
2022-09-26T09:47:02.486Z,15.23
2022-09-26T09:49:33.611Z,14.48
2022-09-26T09:52:15.613Z,13.80
2022-09-26T09:55:00.076Z,12.82
2022-09-26T09:58:02.937Z,13.15
2022-09-26T10:00:34.917Z,12.05
2022-09-26T10:03:23.218Z,11.82
2022-09-26T10:05:56.053Z,10.60
2022-09-26T10:08:45.833Z,10.32
2022-09-26T10:11:41.839Z,10.65
2022-09-26T10:14:42.728Z,9.93
2022-09-26T10:17:36.878Z,9.57
2022-09-26T10:20:37.636Z,9.70
2022-09-26T10:23:22.504Z,9.75
2022-09-26T10:26:00.156Z,10.45
2022-09-26T10:28:34.887Z,10.02
2022-09-26T10:31:13.698Z,9.15
2022-09-26T10:34:09.375Z,9.32
2022-09-26T10:36:40.409Z,9.18
2022-09-26T10:39:41.006Z,10.57
2022-09-26T10:42:19.397Z,11.05
2022-09-26T10:44:50.692Z,11.57
2022-09-26T10:47:27.291Z,11.40
2022-09-26T10:50:29.543Z,12.13
2022-09-26T10:53:33.838Z,10.68
2022-09-26T10:56:08.099Z,10.80
2022-09-26T10:58:42.730Z,11.43
2022-09-26T11:01:27.596Z,10.20
2022-09-26T11:04:01.702Z,10.45
2022-09-26T11:06:50.520Z,9.45
2022-09-26T11:09:28.594Z,9.70
2022-09-26T11:12:24.005Z,9.35
2022-09-26T11:14:59.954Z,8.95
2022-09-26T11:17:47.002Z,7.90
2022-09-26T11:20:32.690Z,7.88
2022-09-26T11:23:07.938Z,7.75
2022-09-26T11:25:52.244Z,7.20
2022-09-26T11:28:27.998Z,6.97
2022-09-26T11:31:27.153Z,5.75
2022-09-26T11:34:27.159Z,6.35
2022-09-26T11:37:26.324Z,7.00
2022-09-26T11:40:11.748Z,6.60
2022-09-26T11:42:54.977Z,6.68
2022-09-26T11:45:39.895Z,6.97
2022-09-26T11:48:53.642Z,6.13
2022-09-26T11:52:07.219Z,6.97
2022-09-26T11:54:59.968Z,5.63
2022-09-26T11:57:40.251Z,5.70
2022-09-26T12:00:24.555Z,5.72
2022-09-26T12:03:20.305Z,5.57
2022-09-26T12:05:56.411Z,5.65
2022-09-26T12:08:48.481Z,5.40
2022-09-26T12:11:26.716Z,5.68
2022-09-26T12:14:03.553Z,5.45
2022-09-26T12:16:42.490Z,5.80
2022-09-26T12:19:21.214Z,6.45
2022-09-26T12:22:19.292Z,6.45
2022-09-26T12:24:58.049Z,6.28
2022-09-26T12:27:36.240Z,5.53
2022-09-26T12:30:14.584Z,4.18
2022-09-26T12:33:10.736Z,5.15
2022-09-26T12:35:52.210Z,6.47
2022-09-26T12:38:56.644Z,4.93
2022-09-26T12:41:51.998Z,5.20
2022-09-26T12:44:41.040Z,4.82
2022-09-26T12:47:36.765Z,5.18
2022-09-26T12:50:29.320Z,4.85
2022-09-26T12:53:19.351Z,5.20
2022-09-26T12:55:59.651Z,7.65
2022-09-26T12:58:43.444Z,5.13
2022-09-26T13:01:27.717Z,5.25
2022-09-26T13:04:27.191Z,4.78
2022-09-26T13:07:18.764Z,4.78
2022-09-26T13:10:13.966Z,4.72
2022-09-26T13:13:26.510Z,5.03
2022-09-26T13:16:13.501Z,5.20
2022-09-26T13:18:50.980Z,5.78
2022-09-26T13:21:35.130Z,4.95
2022-09-26T13:24:13.965Z,4.63
2022-09-26T13:26:50.104Z,5.07
2022-09-26T13:29:33.615Z,5.13
2022-09-26T13:32:16.145Z,5.45
2022-09-26T13:34:50.870Z,4.88
2022-09-26T13:37:37.814Z,5.45
2022-09-26T13:40:24.672Z,5.35
2022-09-26T13:43:04.415Z,6.20
2022-09-26T13:46:00.911Z,5.07
2022-09-26T13:48:39.086Z,5.95
2022-09-26T13:51:24.536Z,5.40
2022-09-26T13:54:03.880Z,5.65
2022-09-26T13:56:49.653Z,5.18
2022-09-26T13:59:53.250Z,5.40
2022-09-26T14:02:35.413Z,5.20
2022-09-26T14:05:30.480Z,5.03
2022-09-26T14:08:55.997Z,5.13
2022-09-26T14:11:30.477Z,4.93
2022-09-26T14:14:24.187Z,4.85
2022-09-26T14:16:54.187Z,4.90
2022-09-26T14:19:35.722Z,4.75
2022-09-26T14:22:06.329Z,11.65
2022-09-26T14:24:39.017Z,4.53
2022-09-26T14:27:32.324Z,4.97
2022-09-26T14:30:02.077Z,4.68
2022-09-26T14:32:37.409Z,5.32
2022-09-26T14:35:19.228Z,5.15
2022-09-26T14:37:50.305Z,5.00
2022-09-26T14:40:30.406Z,4.78
2022-09-26T14:43:13.753Z,4.88
2022-09-26T14:45:51.294Z,5.30
2022-09-26T14:48:39.519Z,5.20
2022-09-26T14:51:29.134Z,4.80
2022-09-26T14:54:02.445Z,4.95
2022-09-26T14:56:41.354Z,5.57
2022-09-26T14:59:28.216Z,4.97
2022-09-26T15:02:24.557Z,6.00
2022-09-26T15:05:04.620Z,6.22
2022-09-26T15:07:37.251Z,6.68
2022-09-26T15:10:22.011Z,7.03
2022-09-26T15:13:09.162Z,6.07
2022-09-26T15:15:48.335Z,6.07
2022-09-26T15:18:29.604Z,5.93
2022-09-26T15:21:04.881Z,6.43
2022-09-26T15:23:47.280Z,6.15
2022-09-26T15:26:19.076Z,6.57
2022-09-26T15:28:52.011Z,6.53
2022-09-26T15:31:23.666Z,6.18
2022-09-26T15:33:56.315Z,6.97
2022-09-26T15:36:29.984Z,7.80
2022-09-26T15:39:00.396Z,6.38
2022-09-26T15:41:46.086Z,6.40
2022-09-26T15:44:24.774Z,7.00
2022-09-26T15:46:52.992Z,6.45
2022-09-26T15:49:23.030Z,6.97
2022-09-26T15:51:54.885Z,6.72
2022-09-26T15:54:30.994Z,6.47
2022-09-26T15:57:04.647Z,6.90
2022-09-26T15:59:41.354Z,6.78
2022-09-26T16:02:23.302Z,6.80
2022-09-26T16:04:54.951Z,7.10
2022-09-26T16:07:27.116Z,6.95
2022-09-26T16:09:58.499Z,7.38
2022-09-26T16:12:29.902Z,6.80
2022-09-26T16:15:02.863Z,6.50
2022-09-26T16:17:35.863Z,6.13
2022-09-26T16:20:25.857Z,6.40
2022-09-26T16:23:04.145Z,7.28
2022-09-26T16:28:53.045Z,7.40
2022-09-26T16:34:30.148Z,7.45
2022-09-26T16:36:59.733Z,7.00
2022-09-26T16:39:29.765Z,7.13
2022-09-26T16:42:06.058Z,7.07
2022-09-26T16:44:38.650Z,7.43
2022-09-26T16:47:36.769Z,7.35
2022-09-26T16:50:28.680Z,7.18
2022-09-26T16:53:19.944Z,9.07
2022-09-26T16:56:28.304Z,9.57
2022-09-26T16:59:04.471Z,10.25
2022-09-26T17:01:50.606Z,9.15
2022-09-26T17:04:26.265Z,7.75
2022-09-26T17:06:56.082Z,7.75
2022-09-26T17:09:28.255Z,7.47
2022-09-26T17:12:02.001Z,8.50
2022-09-26T17:14:40.394Z,8.18
2022-09-26T17:17:16.359Z,7.95
2022-09-26T17:19:46.720Z,8.63
2022-09-26T17:22:28.703Z,8.13
2022-09-26T17:24:57.182Z,8.65
2022-09-26T17:27:29.574Z,7.57
2022-09-26T17:30:02.555Z,8.30
2022-09-26T17:32:33.471Z,8.48
2022-09-26T17:35:05.774Z,8.73
2022-09-26T17:37:34.323Z,8.75
2022-09-26T17:40:04.137Z,9.70
2022-09-26T17:42:32.542Z,10.13
2022-09-26T17:45:04.760Z,9.23
2022-09-26T17:47:33.176Z,9.07
2022-09-26T17:50:06.179Z,9.27
2022-09-26T17:52:35.491Z,9.30
2022-09-26T17:55:07.993Z,9.10
2022-09-26T17:57:41.601Z,9.85
2022-09-26T18:00:16.204Z,8.65
2022-09-26T18:02:47.628Z,9.50
2022-09-26T18:05:21.821Z,9.60
2022-09-26T18:07:52.585Z,9.02
2022-09-26T18:10:24.234Z,9.57
2022-09-26T18:12:57.976Z,9.20
2022-09-26T18:15:29.732Z,9.98
2022-09-26T18:18:01.640Z,9.75
2022-09-26T18:20:38.452Z,9.27
2022-09-26T18:24:09.403Z,9.55
2022-09-26T18:26:57.281Z,9.73
2022-09-26T18:29:35.632Z,9.63
2022-09-26T18:32:19.186Z,9.45
2022-09-26T18:34:51.232Z,9.43
2022-09-26T18:37:21.085Z,10.13
2022-09-26T18:40:04.078Z,9.50
2022-09-26T18:42:35.266Z,9.93
2022-09-26T18:48:38.408Z,12.95
2022-09-26T18:51:10.965Z,13.50
2022-09-26T18:53:43.448Z,14.13
2022-09-26T18:56:29.982Z,14.02
2022-09-26T18:59:04.091Z,13.93
2022-09-26T19:01:45.947Z,13.40
2022-09-26T19:04:26.432Z,13.18
2022-09-26T19:11:22.300Z,12.10
2022-09-26T19:17:57.440Z,8.98
2022-09-26T19:20:27.031Z,8.05
2022-09-26T19:22:58.387Z,8.20
2022-09-26T19:30:01.208Z,7.60
2022-09-26T19:32:33.841Z,7.50
2022-09-26T19:35:04.212Z,7.38
2022-09-26T19:37:34.317Z,7.05
2022-09-26T19:43:51.998Z,7.45
2022-09-26T19:46:27.798Z,7.50
2022-09-26T19:48:58.615Z,7.18
2022-09-26T19:51:41.744Z,7.18
2022-09-26T19:54:18.152Z,7.03
2022-09-26T19:56:48.473Z,7.28
2022-09-26T19:59:21.338Z,7.20
2022-09-26T20:01:55.114Z,7.97
2022-09-26T20:04:25.956Z,8.05
2022-09-26T20:06:55.057Z,7.05
2022-09-26T20:09:27.689Z,8.70
2022-09-26T20:11:56.207Z,8.93
2022-09-26T20:14:30.198Z,8.68
2022-09-26T20:17:16.234Z,8.98
2022-09-26T20:19:47.382Z,9.15
2022-09-26T20:22:21.847Z,8.70
2022-09-26T20:24:55.821Z,9.55
2022-09-26T20:27:26.035Z,9.85
2022-09-26T20:30:12.233Z,9.50
2022-09-26T20:32:49.006Z,9.43
2022-09-26T20:35:17.716Z,9.68
2022-09-26T20:37:46.757Z,9.65
2022-09-26T20:40:26.354Z,9.52
2022-09-26T20:43:03.354Z,10.13
2022-09-26T20:45:38.813Z,10.20
2022-09-26T20:48:09.590Z,10.02
2022-09-26T20:50:43.966Z,10.23
2022-09-26T20:53:22.166Z,10.30
2022-09-26T20:55:55.292Z,10.90
2022-09-26T20:58:32.373Z,9.57
2022-09-26T21:01:23.113Z,10.18
2022-09-26T21:03:55.314Z,9.65
2022-09-26T21:06:30.501Z,9.98
2022-09-26T21:12:51.837Z,9.85
2022-09-26T21:15:24.930Z,10.25
2022-09-26T21:17:55.011Z,9.30
2022-09-26T21:20:36.969Z,10.98
2022-09-26T21:23:19.566Z,10.00
2022-09-26T21:25:50.736Z,9.70
2022-09-26T21:28:29.787Z,9.70
2022-09-26T21:31:00.802Z,9.48
2022-09-26T21:33:29.531Z,10.32
2022-09-26T21:35:58.339Z,9.63
2022-09-26T21:38:54.030Z,8.90
2022-09-26T21:41:31.943Z,9.65
2022-09-26T21:44:08.688Z,9.48
2022-09-26T21:46:39.758Z,9.75
2022-09-26T21:49:15.813Z,9.30
2022-09-26T21:52:00.775Z,9.90
2022-09-26T21:54:35.633Z,10.32
2022-09-26T21:57:16.571Z,10.20
2022-09-26T21:59:55.617Z,10.07
2022-09-26T22:02:35.183Z,10.23
2022-09-26T22:05:09.775Z,9.98
2022-09-26T22:07:56.514Z,10.30
2022-09-26T22:10:25.237Z,10.30
